Time;durP1;ratioP1;P1;durP2;ratioP2;P2;SDS_P1;SDS_P2;PMS_P1;PMS_P2;Temp;Humidity;BMP_temperature;BMP_pressure;BME280_temperature;BME280_humidity;BME280_pressure;Samples;Min_cycle;Max_cycle;Signal;HPM_P1;HPM_P2
2022/01/03 00:01:36;;;;;;;;;;;;;;;18.46;63.18;101160.63;5027751;28;1688;-44
2022/01/03 00:04:02;;;;;;;;;;;;;;;18.45;62.91;101150.91;5031636;28;1541;-44
2022/01/03 00:06:29;;;;;;;;;;;;;;;18.46;62.41;101149.91;5033982;28;1906;-43
2022/01/03 00:08:57;;;;;;;;;;;;;;;18.44;62.57;101147.38;5030494;28;1512;-44
2022/01/03 00:11:23;;;;;;;;;;;;;;;18.42;62.80;101137.75;5031291;28;1483;-41
2022/01/03 00:13:51;;;;;;;;;;;;;;;18.36;63.27;101140.91;5030724;28;1525;-41
2022/01/03 00:16:19;;;;;;;;;;;;;;;18.32;63.15;101126.91;5032247;28;1571;-41
2022/01/03 00:18:46;;;;;;;;;;;;;;;18.28;63.13;101129.03;5030176;28;1402;-41
2022/01/03 00:21:13;;;;;;;;;;;;;;;18.20;63.09;101130.56;5029288;28;1862;-41
2022/01/03 00:23:40;;;;;;;;;;;;;;;18.18;63.01;101125.34;5031856;28;1908;-41
2022/01/03 00:26:08;;;;;;;;;;;;;;;18.14;63.13;101107.81;5030238;28;1969;-41
2022/01/03 00:28:36;;;;;;;;;;;;;;;18.11;63.49;101105.41;5029650;28;1580;-41
2022/01/03 00:31:03;;;;;;;;;;;;;;;18.08;63.10;101082.41;5031634;28;1670;-41
2022/01/03 00:33:32;;;;;;;;;;;;;;;18.08;63.30;101086.91;5031044;28;1619;-41
2022/01/03 00:36:00;;;;;;;;;;;;;;;18.05;63.94;101081.81;5026997;28;1725;-41
2022/01/03 00:38:28;;;;;;;;;;;;;;;18.08;63.17;101078.88;5028899;28;1594;-41
2022/01/03 00:40:55;;;;;;;;;;;;;;;18.02;63.64;101053.44;5028195;28;1829;-41
2022/01/03 00:43:22;;;;;;;;;;;;;;;18.04;63.17;101064.03;5030796;28;1446;-41
2022/01/03 00:45:51;;;;;;;;;;;;;;;18.04;63.58;101053.31;5030153;28;1971;-41
2022/01/03 00:48:17;;;;;;;;;;;;;;;18.07;63.03;101055.78;5033901;28;1551;-42
2022/01/03 00:50:46;;;;;;;;;;;;;;;18.09;63.43;101049.31;5030226;28;1521;-41
2022/01/03 00:53:12;;;;;;;;;;;;;;;18.12;62.70;101052.72;5030516;28;2048;-41
2022/01/03 00:55:43;;;;;;;;;;;;;;;18.15;62.81;101044.47;5031372;28;1761;-41
2022/01/03 00:58:10;;;;;;;;;;;;;;;18.13;63.07;101041.91;5029133;28;1458;-41
2022/01/03 01:00:38;;;;;;;;;;;;;;;18.14;62.64;101037.38;5031369;28;1634;-41
2022/01/03 01:03:09;;;;;;;;;;;;;;;18.14;62.96;101032.88;5031132;28;1746;-41
2022/01/03 01:05:36;;;;;;;;;;;;;;;18.13;62.62;101039.22;5027259;28;2459;-42
2022/01/03 01:08:04;;;;;;;;;;;;;;;18.08;62.86;101017.31;5031746;28;1521;-42
2022/01/03 01:10:32;;;;;;;;;;;;;;;18.08;62.82;101034.25;5031159;28;1736;-41
2022/01/03 01:12:58;;;;;;;;;;;;;;;18.11;62.46;101027.78;5030873;28;1564;-41
2022/01/03 01:15:26;;;;;;;;;;;;;;;18.07;62.43;101026.34;5030382;28;1376;-41
2022/01/03 01:17:53;;;;;;;;;;;;;;;18.08;62.37;101028.03;5028933;28;1635;-41
2022/01/03 01:20:20;;;;;;;;;;;;;;;18.19;61.96;101028.03;5027537;28;1712;-41
2022/01/03 01:22:46;;;;;;;;;;;;;;;18.21;62.27;101023.41;5029880;28;1353;-41
2022/01/03 01:27:45;;;;;;;;;;;;;;;18.26;61.64;101020.34;5027630;28;1722;-41
2022/01/03 01:28:11;;;;;;;;;;;;;;;18.29;62.08;101015.59;5029089;28;1634;-41
2022/01/03 01:30:38;;;;;;;;;;;;;;;18.32;61.72;101025.19;5029355;28;1465;-41
2022/01/03 01:33:06;;;;;;;;;;;;;;;18.35;62.06;101013.41;5033015;28;1688;-41
2022/01/03 01:35:37;;;;;;;;;;;;;;;18.28;61.45;101005.88;5028561;28;1709;-41
2022/01/03 01:38:04;;;;;;;;;;;;;;;18.31;61.51;101003.91;5030953;28;1537;-42
2022/01/03 01:40:33;;;;;;;;;;;;;;;18.31;61.68;101007.44;5029892;28;1785;-41
2022/01/03 01:43:00;;;;;;;;;;;;;;;18.26;61.94;100994.44;5028170;28;1552;-41
2022/01/03 01:45:27;;;;;;;;;;;;;;;18.24;61.75;100991.03;5023631;28;1910;-41
2022/01/03 01:47:55;;;;;;;;;;;;;;;18.28;61.75;100986.25;5033153;28;1540;-41
2022/01/03 01:50:22;;;;;;;;;;;;;;;18.24;61.46;100969.63;5027685;28;1629;-41
2022/01/03 01:52:52;;;;;;;;;;;;;;;18.28;61.13;100971.06;5031007;28;1640;-42
2022/01/03 01:55:19;;;;;;;;;;;;;;;18.26;61.56;100978.38;5027061;28;1497;-41
2022/01/03 01:57:54;;;;;;;;;;;;;;;18.28;61.63;100968.38;5029882;28;1577;-41
2022/01/03 02:00:21;;;;;;;;;;;;;;;18.26;61.38;100959.63;5029272;28;1778;-41
2022/01/03 02:02:54;;;;;;;;;;;;;;;18.33;61.78;100961.81;5032471;28;2108;-41
2022/01/03 02:05:22;;;;;;;;;;;;;;;18.31;61.10;100953.91;5031311;28;1559;-41
2022/01/03 02:07:58;;;;;;;;;;;;;;;18.35;61.24;100959.84;5030012;28;1934;-41
2022/01/03 02:10:30;;;;;;;;;;;;;;;18.40;60.59;100963.84;5029483;28;1831;-41
2022/01/03 02:12:58;;;;;;;;;;;;;;;18.40;60.55;100954.94;5027289;28;1647;-41
2022/01/03 02:15:24;;;;;;;;;;;;;;;18.39;60.59;100945.22;5029821;28;1475;-42
2022/01/03 02:17:50;;;;;;;;;;;;;;;18.43;61.18;100938.66;5030162;28;1699;-41
2022/01/03 02:20:21;;;;;;;;;;;;;;;18.42;61.14;100939.59;5033199;28;1561;-41
2022/01/03 02:22:47;;;;;;;;;;;;;;;18.43;61.07;100941.31;5033649;28;1521;-41
2022/01/03 02:25:14;;;;;;;;;;;;;;;18.45;60.53;100928.66;5032274;28;1587;-41
2022/01/03 02:27:41;;;;;;;;;;;;;;;18.41;60.86;100920.03;5031749;28;1983;-41
2022/01/03 02:30:10;;;;;;;;;;;;;;;18.43;60.48;100906.50;5032289;28;1484;-41
2022/01/03 02:32:36;;;;;;;;;;;;;;;18.40;60.94;100899.59;5035063;28;1402;-41
2022/01/03 02:35:03;;;;;;;;;;;;;;;18.44;61.02;100902.84;5031724;28;1637;-41
2022/01/03 02:37:31;;;;;;;;;;;;;;;18.47;60.74;100899.91;5030504;28;1546;-41
2022/01/03 02:39:58;;;;;;;;;;;;;;;18.51;60.19;100904.03;5034272;28;1434;-41
2022/01/03 02:42:25;;;;;;;;;;;;;;;18.51;60.29;100887.13;5032680;28;1581;-41
2022/01/03 02:44:59;;;;;;;;;;;;;;;18.53;60.56;100890.53;5034390;28;1393;-41
2022/01/03 02:47:25;;;;;;;;;;;;;;;18.55;60.72;100894.75;5034245;28;1910;-41
2022/01/03 02:49:52;;;;;;;;;;;;;;;18.53;59.63;100887.84;5032309;28;1551;-41
2022/01/03 02:52:19;;;;;;;;;;;;;;;18.52;60.26;100889.66;5033836;28;1672;-41
2022/01/03 02:54:47;;;;;;;;;;;;;;;18.47;60.84;100887.38;5031023;28;1502;-41
2022/01/03 02:57:14;;;;;;;;;;;;;;;18.47;60.59;100879.34;5032766;28;1551;-41
2022/01/03 02:59:40;;;;;;;;;;;;;;;18.46;60.90;100871.44;5032071;28;1545;-41
2022/01/03 03:02:07;;;;;;;;;;;;;;;18.46;60.09;100856.22;5145326;23;3684;-42
2022/01/03 03:04:49;;;;;;;;;;;;;;;18.46;60.55;100850.00;5034502;28;1453;-42
2022/01/03 03:07:19;;;;;;;;;;;;;;;18.49;60.55;100852.44;5023361;28;1906;-42
2022/01/03 03:09:47;;;;;;;;;;;;;;;18.50;60.54;100862.16;5031594;28;1955;-42
2022/01/03 03:12:15;;;;;;;;;;;;;;;18.53;59.89;100851.19;5032151;28;1795;-42
2022/01/03 03:14:41;;;;;;;;;;;;;;;18.48;59.80;100835.53;5018920;28;1492;-42
2022/01/03 03:17:08;;;;;;;;;;;;;;;18.46;59.99;100840.16;5031288;28;1961;-43
2022/01/03 03:19:56;;;;;;;;;;;;;;;18.47;59.75;100820.44;5020141;28;1491;-43
2022/01/03 03:22:23;;;;;;;;;;;;;;;18.43;60.52;100834.22;5031483;28;1603;-42
2022/01/03 03:27:34;;;;;;;;;;;;;;;18.42;60.56;100843.22;5015236;28;1909;-43
2022/01/03 03:30:01;;;;;;;;;;;;;;;18.43;60.17;100836.91;5025835;28;1834;-42
2022/01/03 03:32:32;;;;;;;;;;;;;;;18.43;60.16;100823.50;5034749;28;1446;-42
2022/01/03 03:34:59;;;;;;;;;;;;;;;18.49;60.03;100823.81;5033773;28;1337;-42
2022/01/03 03:37:33;;;;;;;;;;;;;;;18.48;59.82;100832.84;5028602;28;1885;-42
2022/01/03 03:40:08;;;;;;;;;;;;;;;18.47;59.98;100799.00;5027636;28;1803;-43
2022/01/03 03:42:36;;;;;;;;;;;;;;;18.48;60.26;100811.44;5021486;28;1899;-43
2022/01/03 03:45:04;;;;;;;;;;;;;;;18.44;59.94;100814.47;5030566;28;1363;-43
2022/01/03 03:47:32;;;;;;;;;;;;;;;18.46;59.94;100813.38;5026165;28;1985;-43
2022/01/03 03:49:58;;;;;;;;;;;;;;;18.45;60.01;100821.56;5029899;28;1673;-43
2022/01/03 03:52:25;;;;;;;;;;;;;;;18.46;60.16;100842.84;5031182;28;1645;-43
2022/01/03 03:54:52;;;;;;;;;;;;;;;18.42;60.34;100828.03;5032173;28;1559;-43
2022/01/03 03:57:22;;;;;;;;;;;;;;;18.41;59.72;100812.91;5032959;28;1586;-43
2022/01/03 03:59:51;;;;;;;;;;;;;;;18.44;60.40;100830.53;5031903;28;1512;-43
2022/01/03 04:02:18;;;;;;;;;;;;;;;18.52;59.59;100813.84;5033672;28;1475;-43
2022/01/03 04:04:49;;;;;;;;;;;;;;;18.51;59.93;100817.50;5031692;28;1576;-42
2022/01/03 04:07:17;;;;;;;;;;;;;;;18.48;60.14;100799.84;5032355;28;1977;-43
2022/01/03 04:09:43;;;;;;;;;;;;;;;18.53;59.97;100816.38;5030288;28;1850;-43
2022/01/03 04:12:10;;;;;;;;;;;;;;;18.53;59.34;100826.25;5033329;28;1399;-44
2022/01/03 04:14:52;;;;;;;;;;;;;;;18.47;59.91;100806.19;5031740;28;1665;-43
2022/01/03 04:17:24;;;;;;;;;;;;;;;18.41;59.74;100794.19;5026703;28;1598;-42
2022/01/03 04:19:53;;;;;;;;;;;;;;;18.44;59.60;100818.03;5032378;28;1454;-43
2022/01/03 04:22:20;;;;;;;;;;;;;;;18.39;59.88;100817.56;5031147;28;1373;-43
2022/01/03 04:24:48;;;;;;;;;;;;;;;18.37;60.01;100814.16;5023013;28;1631;-42
2022/01/03 04:27:19;;;;;;;;;;;;;;;18.38;60.49;100821.22;5028769;28;1982;-43
2022/01/03 04:29:46;;;;;;;;;;;;;;;18.35;59.38;100826.00;5028429;28;1491;-43
2022/01/03 04:32:14;;;;;;;;;;;;;;;18.35;60.27;100812.59;5034412;28;1401;-43
2022/01/03 04:34:42;;;;;;;;;;;;;;;18.39;59.88;100812.22;5032350;28;1586;-43
2022/01/03 04:37:13;;;;;;;;;;;;;;;18.33;60.35;100809.22;5029387;28;1548;-43
2022/01/03 04:39:40;;;;;;;;;;;;;;;18.35;59.79;100823.31;5031581;28;1601;-42
2022/01/03 04:42:27;;;;;;;;;;;;;;;18.36;59.89;100816.97;5031971;28;1470;-43
2022/01/03 04:44:56;;;;;;;;;;;;;;;18.40;59.94;100807.69;5030803;28;1479;-43
2022/01/03 04:47:23;;;;;;;;;;;;;;;18.40;60.12;100805.88;5030527;28;1910;-43
2022/01/03 04:49:53;;;;;;;;;;;;;;;18.43;59.32;100818.16;5032145;28;1670;-42
2022/01/03 04:52:20;;;;;;;;;;;;;;;18.44;59.22;100807.31;5027480;28;1418;-43
2022/01/03 04:54:47;;;;;;;;;;;;;;;18.39;59.74;100804.16;5031484;28;1508;-43
2022/01/03 04:57:14;;;;;;;;;;;;;;;18.38;59.65;100804.28;5029081;28;1316;-43
2022/01/03 04:59:41;;;;;;;;;;;;;;;18.38;60.25;100820.34;5033432;28;2071;-42
2022/01/03 05:02:08;;;;;;;;;;;;;;;18.40;59.26;100831.78;5029871;28;1767;-43
2022/01/03 05:04:36;;;;;;;;;;;;;;;18.41;59.53;100822.78;5033204;28;1668;-42
2022/01/03 05:07:06;;;;;;;;;;;;;;;18.41;59.32;100839.69;5033410;28;1902;-42
2022/01/03 05:09:34;;;;;;;;;;;;;;;18.44;59.21;100812.69;5033346;28;1721;-42
2022/01/03 05:12:00;;;;;;;;;;;;;;;18.47;59.55;100822.25;5028491;28;1962;-43
2022/01/03 05:14:28;;;;;;;;;;;;;;;18.53;59.87;100824.41;5029066;28;1692;-43
2022/01/03 05:16:57;;;;;;;;;;;;;;;18.57;58.85;100822.34;5025338;28;1748;-43
2022/01/03 05:19:25;;;;;;;;;;;;;;;18.56;59.15;100824.16;5029469;28;1495;-43
2022/01/03 05:22:02;;;;;;;;;;;;;;;18.58;58.61;100811.50;5031488;28;1945;-42
2022/01/03 05:24:37;;;;;;;;;;;;;;;18.59;59.37;100815.00;5028903;28;1516;-42
2022/01/03 05:27:05;;;;;;;;;;;;;;;18.55;59.82;100801.03;5024578;28;1906;-42
2022/01/03 05:29:33;;;;;;;;;;;;;;;18.56;59.55;100805.44;5030986;28;1497;-42
2022/01/03 05:32:01;;;;;;;;;;;;;;;18.54;58.59;100803.84;5025703;28;1637;-43
2022/01/03 05:34:29;;;;;;;;;;;;;;;18.49;58.89;100798.88;5029271;28;1466;-43
2022/01/03 05:36:56;;;;;;;;;;;;;;;18.50;59.20;100792.53;5032182;28;1515;-43
2022/01/03 05:39:27;;;;;;;;;;;;;;;18.53;59.23;100813.72;5021654;28;1561;-42
2022/01/03 05:42:01;;;;;;;;;;;;;;;18.56;59.02;100817.94;5032410;28;1308;-42
2022/01/03 05:44:27;;;;;;;;;;;;;;;18.63;58.28;100830.69;5027769;28;1577;-43
2022/01/03 05:46:54;;;;;;;;;;;;;;;18.63;58.30;100827.16;5030288;28;1987;-43
2022/01/03 05:49:21;;;;;;;;;;;;;;;18.67;58.26;100832.13;5030667;28;1676;-43
2022/01/03 05:51:51;;;;;;;;;;;;;;;18.68;58.26;100828.47;5031092;28;1579;-43
2022/01/03 05:54:26;;;;;;;;;;;;;;;18.65;59.12;100809.13;5030194;28;1373;-43
2022/01/03 05:56:54;;;;;;;;;;;;;;;18.71;58.17;100823.81;5035448;28;1385;-42
2022/01/03 05:59:24;;;;;;;;;;;;;;;18.66;59.15;100819.72;5034934;28;1293;-42
2022/01/03 06:01:53;;;;;;;;;;;;;;;18.63;58.25;100809.25;5031364;28;1397;-43
2022/01/03 06:04:35;;;;;;;;;;;;;;;18.66;58.80;100808.13;5036454;28;1616;-42
2022/01/03 06:07:05;;;;;;;;;;;;;;;18.68;58.34;100795.44;5036385;28;1964;-43
2022/01/03 06:09:34;;;;;;;;;;;;;;;18.68;58.37;100801.69;5036027;28;1950;-43
2022/01/03 06:12:05;;;;;;;;;;;;;;;19.00;58.49;100790.03;5035070;28;1459;-42
2022/01/03 06:14:33;;;;;;;;;;;;;;;18.83;58.69;100788.81;5036229;28;1416;-43
2022/01/03 06:17:00;;;;;;;;;;;;;;;18.73;60.22;100795.91;5035161;28;1577;-42
2022/01/03 06:19:31;;;;;;;;;;;;;;;18.73;60.18;100776.31;5036619;28;1571;-43
2022/01/03 06:22:01;;;;;;;;;;;;;;;18.76;59.98;100795.66;5034072;28;1693;-43
2022/01/03 06:24:31;;;;;;;;;;;;;;;18.78;60.13;100796.38;5034749;28;1687;-43
2022/01/03 06:26:57;;;;;;;;;;;;;;;18.69;60.45;100781.09;5033946;28;1902;-42
2022/01/03 06:29:26;;;;;;;;;;;;;;;18.87;60.11;100773.31;5031662;28;2053;-42
2022/01/03 06:31:54;;;;;;;;;;;;;;;18.80;59.86;100766.78;5030397;28;1529;-44
2022/01/03 06:34:21;;;;;;;;;;;;;;;18.72;60.23;100754.06;5033139;28;1544;-42
2022/01/03 06:36:48;;;;;;;;;;;;;;;18.77;60.02;100785.78;5031961;28;1532;-43
2022/01/03 06:39:15;;;;;;;;;;;;;;;19.14;59.22;100785.25;5032356;28;1702;-43
2022/01/03 06:41:42;;;;;;;;;;;;;;;18.99;59.95;100785.63;5032226;28;1755;-43
2022/01/03 06:44:10;;;;;;;;;;;;;;;18.80;60.32;100788.22;5030578;28;1679;-42
2022/01/03 06:46:41;;;;;;;;;;;;;;;18.75;60.44;100780.56;5033971;28;1747;-42
2022/01/03 06:49:07;;;;;;;;;;;;;;;18.75;61.16;100782.41;5034169;28;1975;-43
2022/01/03 06:51:41;;;;;;;;;;;;;;;19.21;58.78;100786.41;5035254;28;1401;-43
2022/01/03 06:54:10;;;;;;;;;;;;;;;19.32;58.17;100799.72;5030291;28;1400;-43
2022/01/03 06:56:39;;;;;;;;;;;;;;;18.97;59.94;100794.78;5035845;28;1394;-43
2022/01/03 06:59:06;;;;;;;;;;;;;;;18.87;59.54;100794.75;5031229;28;2217;-43
2022/01/03 07:01:34;;;;;;;;;;;;;;;18.79;59.97;100791.88;5034891;28;1507;-43
2022/01/03 07:04:04;;;;;;;;;;;;;;;18.78;59.83;100807.09;5032274;28;1575;-43
2022/01/03 07:06:32;;;;;;;;;;;;;;;18.68;60.48;100801.69;5035279;28;1297;-43
2022/01/03 07:08:58;;;;;;;;;;;;;;;18.73;60.71;100782.53;5032916;28;1977;-43
2022/01/03 07:11:26;;;;;;;;;;;;;;;18.64;60.51;100786.84;5032134;28;1521;-43
2022/01/03 07:18:55;;;;;;;;;;;;;;;18.68;60.40;100800.81;5035502;28;1538;-43
2022/01/03 07:19:38;;;;;;;;;;;;;;;19.12;58.98;100781.84;5030784;28;1478;-42
2022/01/03 07:22:05;;;;;;;;;;;;;;;18.88;60.61;100775.03;5033026;28;1631;-42
2022/01/03 07:24:32;;;;;;;;;;;;;;;18.80;60.61;100772.13;5035078;28;1646;-42
2022/01/03 07:27:03;;;;;;;;;;;;;;;18.68;60.53;100768.66;5034283;28;1579;-42
2022/01/03 07:29:30;;;;;;;;;;;;;;;18.79;60.97;100765.06;5031528;28;1902;-42
2022/01/03 07:31:57;;;;;;;;;;;;;;;18.79;60.33;100771.31;5030009;28;1679;-43
2022/01/03 07:34:24;;;;;;;;;;;;;;;19.42;58.32;100756.84;5032303;28;1538;-43
2022/01/03 07:36:54;;;;;;;;;;;;;;;18.86;60.64;100766.25;5033642;28;1601;-43
2022/01/03 07:39:21;;;;;;;;;;;;;;;18.63;61.15;100739.63;5033632;28;1584;-41
2022/01/03 07:41:47;;;;;;;;;;;;;;;18.94;60.52;100758.41;5033418;28;1241;-42
2022/01/03 07:44:14;;;;;;;;;;;;;;;18.73;61.07;100752.22;5034345;28;1433;-43
2022/01/03 07:46:44;;;;;;;;;;;;;;;18.84;61.45;100744.09;5033415;28;1934;-42
2022/01/03 07:49:13;;;;;;;;;;;;;;;18.81;60.85;100765.81;5032914;28;1981;-43
2022/01/03 07:51:43;;;;;;;;;;;;;;;18.77;61.74;100750.97;5031063;28;1562;-42
2022/01/03 07:54:12;;;;;;;;;;;;;;;18.95;61.04;100749.38;5034323;28;1472;-42
2022/01/03 07:56:39;;;;;;;;;;;;;;;18.96;61.27;100745.72;5025716;28;1441;-42
2022/01/03 07:59:06;;;;;;;;;;;;;;;18.81;61.15;100741.72;5029999;28;1522;-42
2022/01/03 08:01:32;;;;;;;;;;;;;;;19.01;60.82;100713.97;5032019;28;1493;-42
2022/01/03 08:03:59;;;;;;;;;;;;;;;19.05;60.40;100720.75;5032518;28;1767;-42
2022/01/03 08:06:28;;;;;;;;;;;;;;;19.36;61.86;100715.34;5027745;28;1390;-42
2022/01/03 08:08:56;;;;;;;;;;;;;;;19.18;60.87;100685.69;5022325;28;1917;-43
2022/01/03 08:11:35;;;;;;;;;;;;;;;19.04;61.31;100700.31;5032336;28;1538;-42
2022/01/03 08:14:12;;;;;;;;;;;;;;;19.22;61.17;100707.69;5023831;28;1622;-43
2022/01/03 08:16:39;;;;;;;;;;;;;;;19.13;61.21;100695.97;5028336;28;1617;-41
2022/01/03 08:19:06;;;;;;;;;;;;;;;20.02;59.38;100698.53;5024100;28;1517;-43
2022/01/03 08:21:32;;;;;;;;;;;;;;;19.68;60.98;100682.88;5033839;28;1578;-42
2022/01/03 08:26:49;;;;;;;;;;;;;;;19.24;62.86;100701.22;5031007;28;2634;-42
2022/01/03 08:29:16;;;;;;;;;;;;;;;19.36;62.60;100682.28;5033432;28;1906;-43
2022/01/03 08:31:44;;;;;;;;;;;;;;;19.50;61.82;100695.31;5030664;28;1530;-43
2022/01/03 08:34:11;;;;;;;;;;;;;;;19.38;63.38;100696.44;5029735;28;1609;-42
2022/01/03 08:36:38;;;;;;;;;;;;;;;19.13;63.54;100697.81;5033407;28;1568;-43
2022/01/03 08:39:05;;;;;;;;;;;;;;;19.06;63.52;100713.59;5032524;28;1588;-43
2022/01/03 08:41:32;;;;;;;;;;;;;;;19.02;65.06;100696.94;5031543;28;1459;-43
2022/01/03 08:47:00;;;;;;;;;;;;;;;18.93;65.81;100703.09;5030387;28;2134;-43
2022/01/03 08:49:27;;;;;;;;;;;;;;;18.80;65.71;100705.16;5030015;28;1910;-42
2022/01/03 08:51:54;;;;;;;;;;;;;;;18.76;64.85;100690.31;5028727;28;1717;-42
2022/01/03 08:54:20;;;;;;;;;;;;;;;18.77;64.91;100692.03;5033567;28;1522;-42
2022/01/03 08:56:47;;;;;;;;;;;;;;;18.76;64.92;100695.69;5032807;28;1396;-43
2022/01/03 08:59:14;;;;;;;;;;;;;;;18.71;65.44;100669.31;5033739;28;1492;-43
2022/01/03 09:01:41;;;;;;;;;;;;;;;18.69;65.33;100666.75;5031810;28;1537;-43
2022/01/03 09:04:19;;;;;;;;;;;;;;;18.66;65.28;100653.66;5034096;28;1467;-43
2022/01/03 09:06:46;;;;;;;;;;;;;;;18.61;64.50;100671.94;5029440;28;1341;-43
2022/01/03 09:09:12;;;;;;;;;;;;;;;18.65;64.69;100664.50;5029508;28;1976;-43
2022/01/03 09:11:39;;;;;;;;;;;;;;;18.56;64.55;100644.75;5030664;28;1644;-43
2022/01/03 09:14:07;;;;;;;;;;;;;;;18.52;66.72;100658.50;5031532;28;1681;-42
2022/01/03 09:16:35;;;;;;;;;;;;;;;18.55;65.15;100667.13;5028289;28;1662;-43
2022/01/03 09:19:02;;;;;;;;;;;;;;;18.82;65.78;100660.34;5033400;28;1679;-43
2022/01/03 09:21:45;;;;;;;;;;;;;;;18.92;66.02;100658.56;5022776;28;1651;-43
2022/01/03 09:24:28;;;;;;;;;;;;;;;19.04;54.59;100656.59;5027424;28;1386;-43
2022/01/03 09:29:40;;;;;;;;;;;;;;;18.42;65.01;100655.78;5022855;28;1911;-43
2022/01/03 09:32:08;;;;;;;;;;;;;;;18.29;65.07;100654.19;5032927;28;1784;-43
2022/01/03 09:34:35;;;;;;;;;;;;;;;18.21;65.16;100656.69;5027732;28;1572;-43
2022/01/03 09:37:02;;;;;;;;;;;;;;;18.19;65.11;100650.63;5032978;28;1538;-43
2022/01/03 09:39:34;;;;;;;;;;;;;;;18.11;65.02;100637.06;5032430;28;1558;-43
2022/01/03 09:42:05;;;;;;;;;;;;;;;18.07;64.74;100619.59;5030909;28;1712;-43
2022/01/03 09:44:34;;;;;;;;;;;;;;;18.05;65.02;100611.69;5025150;28;1646;-42
2022/01/03 09:47:03;;;;;;;;;;;;;;;18.45;64.20;100612.69;5027011;28;1627;-43
2022/01/03 09:49:33;;;;;;;;;;;;;;;18.67;63.84;100588.38;5013830;28;1906;-42
2022/01/03 09:52:00;;;;;;;;;;;;;;;18.70;63.65;100608.66;5024599;28;1828;-42
2022/01/03 09:54:35;;;;;;;;;;;;;;;18.65;63.99;100595.69;5030861;28;1555;-43
2022/01/03 09:57:06;;;;;;;;;;;;;;;18.49;64.15;100616.78;5027321;28;1459;-42
2022/01/03 09:59:41;;;;;;;;;;;;;;;18.51;64.84;100590.72;5025244;28;1664;-43
2022/01/03 10:02:10;;;;;;;;;;;;;;;18.53;64.39;100591.44;5031339;28;1456;-42
2022/01/03 10:04:38;;;;;;;;;;;;;;;18.57;64.82;100597.38;5029353;28;1661;-42
2022/01/03 10:07:14;;;;;;;;;;;;;;;19.20;62.28;100599.72;5027506;28;1288;-42
2022/01/03 10:09:41;;;;;;;;;;;;;;;19.18;62.43;100593.66;5027843;28;1911;-42
2022/01/03 10:12:24;;;;;;;;;;;;;;;19.01;63.51;100598.75;5029570;28;1509;-42
2022/01/03 10:14:58;;;;;;;;;;;;;;;19.43;62.29;100593.09;5031852;28;1605;-42
2022/01/03 10:17:25;;;;;;;;;;;;;;;19.26;63.41;100558.97;5029724;28;1367;-41
2022/01/03 10:19:53;;;;;;;;;;;;;;;19.70;61.86;100594.22;5030692;28;1618;-42
2022/01/03 10:22:22;;;;;;;;;;;;;;;20.10;60.86;100579.72;5029400;28;1772;-42
2022/01/03 10:24:50;;;;;;;;;;;;;;;19.60;61.57;100563.88;5031987;28;1689;-43
2022/01/03 10:27:17;;;;;;;;;;;;;;;19.42;62.77;100569.97;5031193;28;1624;-42
2022/01/03 10:29:53;;;;;;;;;;;;;;;19.57;62.80;100569.50;5031600;28;1972;-42
2022/01/03 10:32:27;;;;;;;;;;;;;;;19.81;62.28;100561.00;5031800;28;1593;-42
2022/01/03 10:34:57;;;;;;;;;;;;;;;19.56;62.42;100565.16;5030275;28;1572;-43
2022/01/03 10:37:36;;;;;;;;;;;;;;;19.57;63.08;100554.25;5030893;28;1819;-42
2022/01/03 10:40:17;;;;;;;;;;;;;;;19.35;64.21;100558.09;5031037;28;1485;-42
2022/01/03 10:42:44;;;;;;;;;;;;;;;19.59;63.89;100544.22;5035126;28;1782;-43
2022/01/03 10:45:14;;;;;;;;;;;;;;;19.41;63.63;100557.53;5032962;28;1452;-42
2022/01/03 10:47:50;;;;;;;;;;;;;;;19.24;63.90;100556.44;5032143;28;1585;-42
2022/01/03 10:50:18;;;;;;;;;;;;;;;19.43;64.37;100566.28;5029419;28;1973;-42
2022/01/03 10:52:47;;;;;;;;;;;;;;;19.56;63.96;100541.84;5034631;28;1585;-42
2022/01/03 10:55:15;;;;;;;;;;;;;;;19.31;63.92;100539.78;5033019;28;1594;-42
2022/01/03 10:57:56;;;;;;;;;;;;;;;19.44;64.18;100541.16;5034648;28;1363;-42
2022/01/03 11:00:26;;;;;;;;;;;;;;;19.42;63.24;100543.16;5034601;28;1438;-42
2022/01/03 11:03:17;;;;;;;;;;;;;;;19.61;61.93;100536.03;5032618;28;1500;-42
2022/01/03 11:05:51;;;;;;;;;;;;;;;19.23;64.35;100519.03;5033561;28;1726;-42
2022/01/03 11:11:33;;;;;;;;;;;;;;;18.77;64.81;100509.88;5026799;28;1569;-42
2022/01/03 11:17:21;;;;;;;;;;;;;;;18.70;65.90;100506.88;5029400;28;1974;-43
2022/01/03 11:20:05;;;;;;;;;;;;;;;18.71;65.42;100503.22;5033692;28;1661;-42
2022/01/03 11:25:29;;;;;;;;;;;;;;;18.74;65.88;100502.09;5028697;28;2384;-42
2022/01/03 11:27:57;;;;;;;;;;;;;;;18.79;65.36;100518.59;5034891;28;1621;-42
2022/01/03 11:30:26;;;;;;;;;;;;;;;18.92;65.46;100504.94;5032400;28;1973;-42
2022/01/03 11:32:56;;;;;;;;;;;;;;;19.27;64.41;100517.75;5034899;28;1711;-42
2022/01/03 11:35:37;;;;;;;;;;;;;;;19.11;64.28;100512.16;5029217;28;1866;-42
2022/01/03 11:38:08;;;;;;;;;;;;;;;18.86;65.11;100506.34;5031376;28;1548;-42
2022/01/03 11:40:47;;;;;;;;;;;;;;;18.76;65.96;100492.09;5032616;28;1543;-42
2022/01/03 11:43:15;;;;;;;;;;;;;;;18.69;65.21;100489.97;5032759;28;1419;-42
2022/01/03 11:45:42;;;;;;;;;;;;;;;18.72;66.07;100501.38;5029410;28;1520;-42
2022/01/03 11:48:18;;;;;;;;;;;;;;;18.67;66.18;100504.50;5034787;28;1629;-42
2022/01/03 11:50:49;;;;;;;;;;;;;;;18.71;65.26;100499.72;5028111;28;1984;-42
2022/01/03 11:53:20;;;;;;;;;;;;;;;18.64;65.08;100518.16;5031105;28;1377;-42
2022/01/03 11:55:51;;;;;;;;;;;;;;;18.66;65.55;100503.66;5031114;28;1676;-42
2022/01/03 11:58:44;;;;;;;;;;;;;;;18.65;65.09;100496.59;5030346;28;1521;-42
2022/01/03 12:04:00;;;;;;;;;;;;;;;18.63;64.43;100498.56;5027738;28;1990;-42
2022/01/03 12:06:31;;;;;;;;;;;;;;;18.62;65.17;100491.53;5033214;28;1486;-42
2022/01/03 12:09:00;;;;;;;;;;;;;;;18.69;64.08;100498.00;5033594;28;1985;-42
2022/01/03 12:11:30;;;;;;;;;;;;;;;18.99;63.38;100503.41;5033027;28;1540;-43
2022/01/03 12:14:00;;;;;;;;;;;;;;;18.86;63.11;100495.63;5028739;28;1591;-42
2022/01/03 12:16:50;;;;;;;;;;;;;;;19.11;62.44;100493.38;5023056;28;1885;-43
2022/01/03 12:19:30;;;;;;;;;;;;;;;19.12;63.06;100493.25;5030139;28;1654;-42
2022/01/03 12:21:57;;;;;;;;;;;;;;;19.02;64.63;100495.94;5021808;28;1439;-43
2022/01/03 12:24:54;;;;;;;;;;;;;;;18.83;64.95;100493.25;5017613;28;1503;-42
2022/01/03 12:27:23;;;;;;;;;;;;;;;18.80;65.00;100486.34;5014713;28;2052;-43
2022/01/03 12:30:08;;;;;;;;;;;;;;;18.73;64.90;100479.00;5014929;28;1910;-42
2022/01/03 12:32:35;;;;;;;;;;;;;;;18.75;65.87;100485.06;5017730;28;1366;-43
2022/01/03 12:35:24;;;;;;;;;;;;;;;18.99;65.58;100480.13;5026054;28;1683;-43
2022/01/03 12:38:14;;;;;;;;;;;;;;;18.82;64.63;100472.81;5033627;28;1680;-42
2022/01/03 12:40:49;;;;;;;;;;;;;;;18.63;65.59;100477.16;5007811;28;1419;-42
2022/01/03 12:43:23;;;;;;;;;;;;;;;18.63;65.82;100476.31;5022378;28;1723;-42
2022/01/03 12:45:51;;;;;;;;;;;;;;;18.76;64.86;100471.53;5027568;28;1568;-42
2022/01/03 12:48:22;;;;;;;;;;;;;;;18.73;66.39;100487.03;5024734;28;1431;-42
2022/01/03 12:51:17;;;;;;;;;;;;;;;18.72;66.72;100482.63;5028974;28;1906;-42
2022/01/03 12:53:45;;;;;;;;;;;;;;;18.76;67.10;100481.38;5026792;28;1330;-44
2022/01/03 12:56:23;;;;;;;;;;;;;;;18.73;67.64;100482.50;5025797;28;1578;-42
2022/01/03 12:59:14;;;;;;;;;;;;;;;18.77;66.46;100477.72;5027815;28;1377;-42
2022/01/03 13:01:42;;;;;;;;;;;;;;;18.79;67.78;100489.13;5029684;28;2000;-42
2022/01/03 13:04:26;;;;;;;;;;;;;;;18.78;67.63;100471.34;5027355;28;1678;-42
2022/01/03 13:07:02;;;;;;;;;;;;;;;18.87;66.46;100475.91;5031333;28;1408;-42
2022/01/03 13:09:28;;;;;;;;;;;;;;;18.92;66.33;100471.00;5031773;28;1910;-42
2022/01/03 13:11:59;;;;;;;;;;;;;;;18.91;67.46;100468.44;5027560;28;1531;-43
2022/01/03 13:14:31;;;;;;;;;;;;;;;18.98;66.37;100459.69;5029456;28;1403;-42
2022/01/03 13:17:02;;;;;;;;;;;;;;;19.01;67.32;100464.75;5029347;28;1720;-42
2022/01/03 13:19:29;;;;;;;;;;;;;;;19.09;66.18;100461.38;5031773;28;1527;-42
2022/01/03 13:21:57;;;;;;;;;;;;;;;19.11;66.01;100453.19;5025060;28;1563;-42
2022/01/03 13:24:32;;;;;;;;;;;;;;;19.15;65.80;100454.59;5029325;28;1525;-42
2022/01/03 13:27:05;;;;;;;;;;;;;;;19.05;66.35;100450.06;5028098;28;1431;-42
2022/01/03 13:29:39;;;;;;;;;;;;;;;19.07;66.24;100469.53;5031272;28;1972;-42